sensor_id;sensor_type;location;lat;lon;timestamp;temperature;humidity
71237;DHT22;58984;51.960;5.582;2024-01-25T00:01:27;8.90;95.30
71237;DHT22;58984;51.960;5.582;2024-01-25T00:03:56;8.80;95.70
71237;DHT22;58984;51.960;5.582;2024-01-25T00:06:21;8.80;95.40
71237;DHT22;58984;51.960;5.582;2024-01-25T00:08:47;8.80;95.40
71237;DHT22;58984;51.960;5.582;2024-01-25T00:11:13;8.80;95.50
71237;DHT22;58984;51.960;5.582;2024-01-25T00:13:39;8.80;95.40
71237;DHT22;58984;51.960;5.582;2024-01-25T00:16:05;8.80;95.40
71237;DHT22;58984;51.960;5.582;2024-01-25T00:18:31;8.80;95.50
71237;DHT22;58984;51.960;5.582;2024-01-25T00:20:57;8.80;95.40
71237;DHT22;58984;51.960;5.582;2024-01-25T00:23:22;8.80;95.40
71237;DHT22;58984;51.960;5.582;2024-01-25T00:25:48;8.80;95.40
71237;DHT22;58984;51.960;5.582;2024-01-25T00:28:14;8.70;95.50
71237;DHT22;58984;51.960;5.582;2024-01-25T00:30:40;8.70;95.40
71237;DHT22;58984;51.960;5.582;2024-01-25T00:33:08;8.70;95.40
71237;DHT22;58984;51.960;5.582;2024-01-25T00:35:34;8.70;95.30
71237;DHT22;58984;51.960;5.582;2024-01-25T00:38:00;8.70;95.20
71237;DHT22;58984;51.960;5.582;2024-01-25T00:40:26;8.70;95.10
71237;DHT22;58984;51.960;5.582;2024-01-25T00:42:52;8.70;95.30
71237;DHT22;58984;51.960;5.582;2024-01-25T00:45:19;8.60;95.20
71237;DHT22;58984;51.960;5.582;2024-01-25T00:47:46;8.60;95.10
71237;DHT22;58984;51.960;5.582;2024-01-25T00:50:12;8.60;95.20
71237;DHT22;58984;51.960;5.582;2024-01-25T00:52:38;8.60;95.30
71237;DHT22;58984;51.960;5.582;2024-01-25T00:55:05;8.60;95.50
71237;DHT22;58984;51.960;5.582;2024-01-25T00:57:31;8.60;95.10
71237;DHT22;58984;51.960;5.582;2024-01-25T00:59:58;8.60;95.40
71237;DHT22;58984;51.960;5.582;2024-01-25T01:02:25;8.60;95.70
71237;DHT22;58984;51.960;5.582;2024-01-25T01:04:56;8.50;95.60
71237;DHT22;58984;51.960;5.582;2024-01-25T01:07:22;8.50;95.70
71237;DHT22;58984;51.960;5.582;2024-01-25T01:09:51;8.50;95.50
71237;DHT22;58984;51.960;5.582;2024-01-25T01:12:16;8.50;95.60
71237;DHT22;58984;51.960;5.582;2024-01-25T01:14:43;8.50;95.60
71237;DHT22;58984;51.960;5.582;2024-01-25T01:17:08;8.50;95.30
71237;DHT22;58984;51.960;5.582;2024-01-25T01:19:34;8.50;95.20
71237;DHT22;58984;51.960;5.582;2024-01-25T01:22:00;8.50;95.50
71237;DHT22;58984;51.960;5.582;2024-01-25T01:24:25;8.50;95.10
71237;DHT22;58984;51.960;5.582;2024-01-25T01:26:54;8.40;95.00
71237;DHT22;58984;51.960;5.582;2024-01-25T01:29:20;8.40;94.80
71237;DHT22;58984;51.960;5.582;2024-01-25T01:31:46;8.40;94.90
71237;DHT22;58984;51.960;5.582;2024-01-25T01:34:11;8.40;94.90
71237;DHT22;58984;51.960;5.582;2024-01-25T01:36:40;8.40;94.80
71237;DHT22;58984;51.960;5.582;2024-01-25T01:39:06;8.30;94.90
71237;DHT22;58984;51.960;5.582;2024-01-25T01:41:31;8.30;94.70
71237;DHT22;58984;51.960;5.582;2024-01-25T01:43:57;8.30;94.50
71237;DHT22;58984;51.960;5.582;2024-01-25T01:48:59;8.30;94.60
71237;DHT22;58984;51.960;5.582;2024-01-25T01:51:25;8.30;94.50
71237;DHT22;58984;51.960;5.582;2024-01-25T01:53:51;8.30;94.60
71237;DHT22;58984;51.960;5.582;2024-01-25T01:56:20;8.30;94.50
71237;DHT22;58984;51.960;5.582;2024-01-25T01:58:47;8.30;94.50
71237;DHT22;58984;51.960;5.582;2024-01-25T02:01:13;8.20;94.40
71237;DHT22;58984;51.960;5.582;2024-01-25T02:03:39;8.20;94.40
71237;DHT22;58984;51.960;5.582;2024-01-25T02:06:07;8.20;94.30
71237;DHT22;58984;51.960;5.582;2024-01-25T02:08:33;8.20;94.30
71237;DHT22;58984;51.960;5.582;2024-01-25T02:10:59;8.20;94.50
71237;DHT22;58984;51.960;5.582;2024-01-25T02:13:27;8.20;94.30
71237;DHT22;58984;51.960;5.582;2024-01-25T02:15:53;8.10;94.30
71237;DHT22;58984;51.960;5.582;2024-01-25T02:18:18;8.10;94.30
71237;DHT22;58984;51.960;5.582;2024-01-25T02:20:44;8.10;94.40
71237;DHT22;58984;51.960;5.582;2024-01-25T02:23:10;8.10;94.40
71237;DHT22;58984;51.960;5.582;2024-01-25T02:25:36;8.10;94.30
71237;DHT22;58984;51.960;5.582;2024-01-25T02:28:01;8.10;94.50
71237;DHT22;58984;51.960;5.582;2024-01-25T02:30:27;8.10;94.40
71237;DHT22;58984;51.960;5.582;2024-01-25T02:32:55;8.00;94.30
71237;DHT22;58984;51.960;5.582;2024-01-25T02:35:22;8.00;94.40
71237;DHT22;58984;51.960;5.582;2024-01-25T02:37:47;8.00;94.30
71237;DHT22;58984;51.960;5.582;2024-01-25T02:40:16;7.90;94.00
71237;DHT22;58984;51.960;5.582;2024-01-25T02:42:41;8.00;94.30
71237;DHT22;58984;51.960;5.582;2024-01-25T02:45:07;7.90;94.20
71237;DHT22;58984;51.960;5.582;2024-01-25T02:47:33;7.90;94.20
71237;DHT22;58984;51.960;5.582;2024-01-25T02:49:59;7.90;94.30
71237;DHT22;58984;51.960;5.582;2024-01-25T02:52:24;7.90;94.30
71237;DHT22;58984;51.960;5.582;2024-01-25T02:54:50;7.90;94.30
71237;DHT22;58984;51.960;5.582;2024-01-25T02:57:16;7.90;94.30
71237;DHT22;58984;51.960;5.582;2024-01-25T02:59:42;7.90;94.20
71237;DHT22;58984;51.960;5.582;2024-01-25T03:02:07;7.90;94.20
71237;DHT22;58984;51.960;5.582;2024-01-25T03:04:33;7.90;94.20
71237;DHT22;58984;51.960;5.582;2024-01-25T03:06:59;7.80;94.20
71237;DHT22;58984;51.960;5.582;2024-01-25T03:09:24;7.80;94.20
71237;DHT22;58984;51.960;5.582;2024-01-25T03:11:50;7.80;94.10
71237;DHT22;58984;51.960;5.582;2024-01-25T03:14:19;7.80;94.10
71237;DHT22;58984;51.960;5.582;2024-01-25T03:16:44;7.80;94.30
71237;DHT22;58984;51.960;5.582;2024-01-25T03:19:10;7.80;94.50
71237;DHT22;58984;51.960;5.582;2024-01-25T03:21:36;7.80;94.20
71237;DHT22;58984;51.960;5.582;2024-01-25T03:24:05;7.80;94.20
71237;DHT22;58984;51.960;5.582;2024-01-25T03:26:32;7.70;94.20
71237;DHT22;58984;51.960;5.582;2024-01-25T03:28:57;7.70;94.50
71237;DHT22;58984;51.960;5.582;2024-01-25T03:31:25;7.70;94.30
71237;DHT22;58984;51.960;5.582;2024-01-25T03:33:51;7.70;94.30
71237;DHT22;58984;51.960;5.582;2024-01-25T03:36:17;7.70;94.20
71237;DHT22;58984;51.960;5.582;2024-01-25T03:38:42;7.70;94.20
71237;DHT22;58984;51.960;5.582;2024-01-25T03:41:09;7.70;94.20
71237;DHT22;58984;51.960;5.582;2024-01-25T03:43:35;7.70;94.10
71237;DHT22;58984;51.960;5.582;2024-01-25T03:46:01;7.60;94.30
71237;DHT22;58984;51.960;5.582;2024-01-25T03:48:26;7.60;94.20
71237;DHT22;58984;51.960;5.582;2024-01-25T03:50:55;7.60;94.20
71237;DHT22;58984;51.960;5.582;2024-01-25T03:53:22;7.60;94.30
71237;DHT22;58984;51.960;5.582;2024-01-25T03:55:48;7.60;94.40
71237;DHT22;58984;51.960;5.582;2024-01-25T03:58:15;7.60;94.20
71237;DHT22;58984;51.960;5.582;2024-01-25T04:00:43;7.50;94.50
71237;DHT22;58984;51.960;5.582;2024-01-25T04:03:10;7.50;94.30
71237;DHT22;58984;51.960;5.582;2024-01-25T04:05:39;7.50;94.10
71237;DHT22;58984;51.960;5.582;2024-01-25T04:08:05;7.50;94.20
71237;DHT22;58984;51.960;5.582;2024-01-25T04:10:32;7.50;94.60
71237;DHT22;58984;51.960;5.582;2024-01-25T04:12:57;7.50;94.30
71237;DHT22;58984;51.960;5.582;2024-01-25T04:15:27;7.50;94.20
71237;DHT22;58984;51.960;5.582;2024-01-25T04:17:53;7.50;94.40
71237;DHT22;58984;51.960;5.582;2024-01-25T04:20:19;7.40;94.10
71237;DHT22;58984;51.960;5.582;2024-01-25T04:22:45;7.40;94.50
71237;DHT22;58984;51.960;5.582;2024-01-25T04:25:13;7.40;94.60
71237;DHT22;58984;51.960;5.582;2024-01-25T04:27:38;7.40;94.10
71237;DHT22;58984;51.960;5.582;2024-01-25T04:30:08;7.40;94.00
71237;DHT22;58984;51.960;5.582;2024-01-25T04:32:34;7.40;94.50
71237;DHT22;58984;51.960;5.582;2024-01-25T04:35:00;7.40;94.20
71237;DHT22;58984;51.960;5.582;2024-01-25T04:37:26;7.40;94.10
71237;DHT22;58984;51.960;5.582;2024-01-25T04:39:51;7.30;94.20
71237;DHT22;58984;51.960;5.582;2024-01-25T04:42:17;7.30;94.10
71237;DHT22;58984;51.960;5.582;2024-01-25T04:44:43;7.30;94.10
71237;DHT22;58984;51.960;5.582;2024-01-25T04:47:09;7.30;94.10
71237;DHT22;58984;51.960;5.582;2024-01-25T04:49:35;7.30;94.20
71237;DHT22;58984;51.960;5.582;2024-01-25T04:52:01;7.30;94.50
71237;DHT22;58984;51.960;5.582;2024-01-25T04:54:30;7.30;94.30
71237;DHT22;58984;51.960;5.582;2024-01-25T04:56:55;7.30;94.60
71237;DHT22;58984;51.960;5.582;2024-01-25T04:59:21;7.20;94.30
71237;DHT22;58984;51.960;5.582;2024-01-25T05:01:47;7.20;94.30
71237;DHT22;58984;51.960;5.582;2024-01-25T05:04:12;7.20;94.40
71237;DHT22;58984;51.960;5.582;2024-01-25T05:06:38;7.20;94.20
71237;DHT22;58984;51.960;5.582;2024-01-25T05:09:04;7.20;94.90
71237;DHT22;58984;51.960;5.582;2024-01-25T05:11:29;7.20;94.40
71237;DHT22;58984;51.960;5.582;2024-01-25T05:13:57;7.20;94.30
71237;DHT22;58984;51.960;5.582;2024-01-25T05:16:31;7.20;94.50
71237;DHT22;58984;51.960;5.582;2024-01-25T05:18:57;7.10;94.30
71237;DHT22;58984;51.960;5.582;2024-01-25T05:21:23;7.10;94.50
71237;DHT22;58984;51.960;5.582;2024-01-25T05:23:48;7.10;94.70
71237;DHT22;58984;51.960;5.582;2024-01-25T05:26:15;7.10;94.70
71237;DHT22;58984;51.960;5.582;2024-01-25T05:28:41;7.10;94.80
71237;DHT22;58984;51.960;5.582;2024-01-25T05:31:06;7.10;94.70
71237;DHT22;58984;51.960;5.582;2024-01-25T05:33:40;7.10;94.70
71237;DHT22;58984;51.960;5.582;2024-01-25T05:36:06;7.10;94.70
71237;DHT22;58984;51.960;5.582;2024-01-25T05:38:32;7.10;94.40
71237;DHT22;58984;51.960;5.582;2024-01-25T05:40:58;7.10;94.50
71237;DHT22;58984;51.960;5.582;2024-01-25T05:43:25;7.10;94.70
71237;DHT22;58984;51.960;5.582;2024-01-25T05:45:51;7.10;95.00
71237;DHT22;58984;51.960;5.582;2024-01-25T05:48:16;7.00;94.60
71237;DHT22;58984;51.960;5.582;2024-01-25T05:50:45;7.00;94.40
71237;DHT22;58984;51.960;5.582;2024-01-25T05:53:11;7.10;94.50
71237;DHT22;58984;51.960;5.582;2024-01-25T05:55:36;7.00;94.30
71237;DHT22;58984;51.960;5.582;2024-01-25T05:58:02;7.00;94.80
71237;DHT22;58984;51.960;5.582;2024-01-25T06:00:28;7.00;94.90
71237;DHT22;58984;51.960;5.582;2024-01-25T06:02:54;7.00;94.90
71237;DHT22;58984;51.960;5.582;2024-01-25T06:05:19;7.00;94.90
71237;DHT22;58984;51.960;5.582;2024-01-25T06:07:45;7.00;94.60
71237;DHT22;58984;51.960;5.582;2024-01-25T06:10:11;7.00;94.90
71237;DHT22;58984;51.960;5.582;2024-01-25T06:12:39;6.90;94.80
71237;DHT22;58984;51.960;5.582;2024-01-25T06:15:05;6.90;95.20
71237;DHT22;58984;51.960;5.582;2024-01-25T06:17:31;6.90;94.70
71237;DHT22;58984;51.960;5.582;2024-01-25T06:19:57;6.90;94.50
71237;DHT22;58984;51.960;5.582;2024-01-25T06:22:22;6.90;95.40
71237;DHT22;58984;51.960;5.582;2024-01-25T06:24:48;6.90;95.00
71237;DHT22;58984;51.960;5.582;2024-01-25T06:27:14;6.90;94.90
71237;DHT22;58984;51.960;5.582;2024-01-25T06:29:39;6.90;94.90
71237;DHT22;58984;51.960;5.582;2024-01-25T06:32:06;6.80;94.40
71237;DHT22;58984;51.960;5.582;2024-01-25T06:34:32;6.90;94.40
71237;DHT22;58984;51.960;5.582;2024-01-25T06:36:57;6.90;94.40
71237;DHT22;58984;51.960;5.582;2024-01-25T06:39:23;6.90;94.80
71237;DHT22;58984;51.960;5.582;2024-01-25T06:41:48;6.80;95.00
71237;DHT22;58984;51.960;5.582;2024-01-25T06:44:14;6.80;94.80
71237;DHT22;58984;51.960;5.582;2024-01-25T06:46:40;6.80;94.80
71237;DHT22;58984;51.960;5.582;2024-01-25T06:49:05;6.80;95.20
71237;DHT22;58984;51.960;5.582;2024-01-25T06:51:35;6.80;94.80
71237;DHT22;58984;51.960;5.582;2024-01-25T06:54:03;6.80;94.80
71237;DHT22;58984;51.960;5.582;2024-01-25T06:56:29;6.80;94.90
71237;DHT22;58984;51.960;5.582;2024-01-25T06:58:54;6.70;94.80
71237;DHT22;58984;51.960;5.582;2024-01-25T07:01:21;6.70;95.10
71237;DHT22;58984;51.960;5.582;2024-01-25T07:03:48;6.70;95.40
71237;DHT22;58984;51.960;5.582;2024-01-25T07:06:19;6.70;95.50
71237;DHT22;58984;51.960;5.582;2024-01-25T07:08:45;6.70;95.50
71237;DHT22;58984;51.960;5.582;2024-01-25T07:11:11;6.70;95.60
71237;DHT22;58984;51.960;5.582;2024-01-25T07:13:37;6.70;95.10
71237;DHT22;58984;51.960;5.582;2024-01-25T07:16:02;6.70;94.80
71237;DHT22;58984;51.960;5.582;2024-01-25T07:18:28;6.70;95.20
71237;DHT22;58984;51.960;5.582;2024-01-25T07:20:54;6.70;95.50
71237;DHT22;58984;51.960;5.582;2024-01-25T07:23:21;6.70;95.20
71237;DHT22;58984;51.960;5.582;2024-01-25T07:25:47;6.70;94.80
71237;DHT22;58984;51.960;5.582;2024-01-25T07:28:12;6.60;95.50
71237;DHT22;58984;51.960;5.582;2024-01-25T07:30:38;6.70;95.70
71237;DHT22;58984;51.960;5.582;2024-01-25T07:33:04;6.70;95.70
71237;DHT22;58984;51.960;5.582;2024-01-25T07:35:29;6.70;95.60
71237;DHT22;58984;51.960;5.582;2024-01-25T07:37:55;6.60;95.20
71237;DHT22;58984;51.960;5.582;2024-01-25T07:40:20;6.60;95.20
71237;DHT22;58984;51.960;5.582;2024-01-25T07:42:47;6.60;95.70
71237;DHT22;58984;51.960;5.582;2024-01-25T07:45:12;6.60;95.60
71237;DHT22;58984;51.960;5.582;2024-01-25T07:47:41;6.60;95.60
71237;DHT22;58984;51.960;5.582;2024-01-25T07:50:07;6.60;95.40
71237;DHT22;58984;51.960;5.582;2024-01-25T07:52:33;6.60;95.30
71237;DHT22;58984;51.960;5.582;2024-01-25T07:54:59;6.60;95.90
71237;DHT22;58984;51.960;5.582;2024-01-25T07:57:25;6.60;95.90
71237;DHT22;58984;51.960;5.582;2024-01-25T07:59:50;6.60;95.90
71237;DHT22;58984;51.960;5.582;2024-01-25T08:02:16;6.70;95.80
71237;DHT22;58984;51.960;5.582;2024-01-25T08:04:42;6.60;95.30
71237;DHT22;58984;51.960;5.582;2024-01-25T08:07:08;6.60;95.50
71237;DHT22;58984;51.960;5.582;2024-01-25T08:09:34;6.70;95.90
71237;DHT22;58984;51.960;5.582;2024-01-25T08:12:00;6.60;95.70
71237;DHT22;58984;51.960;5.582;2024-01-25T08:14:25;6.70;95.10
71237;DHT22;58984;51.960;5.582;2024-01-25T08:16:51;6.60;95.10
71237;DHT22;58984;51.960;5.582;2024-01-25T08:19:16;6.60;95.00
71237;DHT22;58984;51.960;5.582;2024-01-25T08:21:42;6.60;95.20
71237;DHT22;58984;51.960;5.582;2024-01-25T08:24:08;6.60;95.30
71237;DHT22;58984;51.960;5.582;2024-01-25T08:26:34;6.60;95.90
71237;DHT22;58984;51.960;5.582;2024-01-25T08:29:00;6.60;95.70
71237;DHT22;58984;51.960;5.582;2024-01-25T08:31:26;6.60;95.80
71237;DHT22;58984;51.960;5.582;2024-01-25T08:33:51;6.60;95.10
71237;DHT22;58984;51.960;5.582;2024-01-25T08:36:17;6.70;95.00
71237;DHT22;58984;51.960;5.582;2024-01-25T08:38:44;6.60;95.40
71237;DHT22;58984;51.960;5.582;2024-01-25T08:41:09;6.70;95.20
71237;DHT22;58984;51.960;5.582;2024-01-25T08:43:36;6.60;95.10
71237;DHT22;58984;51.960;5.582;2024-01-25T08:46:02;6.70;95.20
71237;DHT22;58984;51.960;5.582;2024-01-25T08:48:28;6.60;95.10
71237;DHT22;58984;51.960;5.582;2024-01-25T08:50:54;6.70;95.00
71237;DHT22;58984;51.960;5.582;2024-01-25T08:53:20;6.70;95.50
71237;DHT22;58984;51.960;5.582;2024-01-25T08:55:55;6.70;95.30
71237;DHT22;58984;51.960;5.582;2024-01-25T08:58:21;6.70;95.10
71237;DHT22;58984;51.960;5.582;2024-01-25T09:00:47;6.70;95.00
71237;DHT22;58984;51.960;5.582;2024-01-25T09:03:14;6.70;95.10
71237;DHT22;58984;51.960;5.582;2024-01-25T09:05:39;6.70;95.20
71237;DHT22;58984;51.960;5.582;2024-01-25T09:08:13;6.70;95.20
71237;DHT22;58984;51.960;5.582;2024-01-25T09:10:41;6.70;95.40
71237;DHT22;58984;51.960;5.582;2024-01-25T09:13:07;6.70;95.40
71237;DHT22;58984;51.960;5.582;2024-01-25T09:15:33;6.70;95.50
71237;DHT22;58984;51.960;5.582;2024-01-25T09:17:58;6.70;95.40
71237;DHT22;58984;51.960;5.582;2024-01-25T09:20:24;6.80;95.60
71237;DHT22;58984;51.960;5.582;2024-01-25T09:22:50;6.70;95.60
71237;DHT22;58984;51.960;5.582;2024-01-25T09:25:16;6.80;95.70
71237;DHT22;58984;51.960;5.582;2024-01-25T09:27:42;6.80;95.90
71237;DHT22;58984;51.960;5.582;2024-01-25T09:30:08;6.80;95.60
71237;DHT22;58984;51.960;5.582;2024-01-25T09:32:33;6.80;95.50
71237;DHT22;58984;51.960;5.582;2024-01-25T09:34:59;6.80;95.50
71237;DHT22;58984;51.960;5.582;2024-01-25T09:37:25;6.80;95.50
71237;DHT22;58984;51.960;5.582;2024-01-25T09:39:51;6.90;95.70
71237;DHT22;58984;51.960;5.582;2024-01-25T09:42:19;6.90;95.70
71237;DHT22;58984;51.960;5.582;2024-01-25T09:44:45;6.90;96.00
71237;DHT22;58984;51.960;5.582;2024-01-25T09:47:11;6.90;95.60
71237;DHT22;58984;51.960;5.582;2024-01-25T09:49:37;6.90;96.00
71237;DHT22;58984;51.960;5.582;2024-01-25T09:52:04;6.90;96.00
71237;DHT22;58984;51.960;5.582;2024-01-25T09:54:34;6.90;96.40
71237;DHT22;58984;51.960;5.582;2024-01-25T09:57:11;6.90;96.10
71237;DHT22;58984;51.960;5.582;2024-01-25T09:59:39;7.00;96.10
71237;DHT22;58984;51.960;5.582;2024-01-25T10:02:04;6.90;95.70
71237;DHT22;58984;51.960;5.582;2024-01-25T10:04:30;7.00;96.00
71237;DHT22;58984;51.960;5.582;2024-01-25T10:06:56;7.00;96.10
71237;DHT22;58984;51.960;5.582;2024-01-25T10:09:22;7.00;96.00
71237;DHT22;58984;51.960;5.582;2024-01-25T10:11:48;7.10;96.10
71237;DHT22;58984;51.960;5.582;2024-01-25T10:14:14;7.10;96.30
71237;DHT22;58984;51.960;5.582;2024-01-25T10:16:40;7.10;96.10
71237;DHT22;58984;51.960;5.582;2024-01-25T10:19:09;7.10;96.00
71237;DHT22;58984;51.960;5.582;2024-01-25T10:21:36;7.20;95.90
71237;DHT22;58984;51.960;5.582;2024-01-25T10:24:01;7.20;96.20
71237;DHT22;58984;51.960;5.582;2024-01-25T10:26:28;7.20;95.90
71237;DHT22;58984;51.960;5.582;2024-01-25T10:28:54;7.20;95.90
71237;DHT22;58984;51.960;5.582;2024-01-25T10:31:23;7.20;95.90
71237;DHT22;58984;51.960;5.582;2024-01-25T10:33:53;7.30;95.90
71237;DHT22;58984;51.960;5.582;2024-01-25T10:36:21;7.40;95.80
71237;DHT22;58984;51.960;5.582;2024-01-25T10:38:48;7.40;95.80
71237;DHT22;58984;51.960;5.582;2024-01-25T10:41:19;7.50;95.80
71237;DHT22;58984;51.960;5.582;2024-01-25T10:43:45;7.50;95.80
71237;DHT22;58984;51.960;5.582;2024-01-25T10:46:11;7.60;95.90
71237;DHT22;58984;51.960;5.582;2024-01-25T10:48:37;7.60;95.90
71237;DHT22;58984;51.960;5.582;2024-01-25T10:51:04;7.70;95.90
71237;DHT22;58984;51.960;5.582;2024-01-25T10:53:34;7.70;96.20
71237;DHT22;58984;51.960;5.582;2024-01-25T10:56:01;7.70;96.20
71237;DHT22;58984;51.960;5.582;2024-01-25T10:58:33;7.70;95.90
71237;DHT22;58984;51.960;5.582;2024-01-25T11:01:01;7.80;95.90
71237;DHT22;58984;51.960;5.582;2024-01-25T11:03:31;7.80;95.90
71237;DHT22;58984;51.960;5.582;2024-01-25T11:06:10;7.80;96.00
71237;DHT22;58984;51.960;5.582;2024-01-25T11:08:36;7.80;96.10
71237;DHT22;58984;51.960;5.582;2024-01-25T11:11:06;7.80;96.10
71237;DHT22;58984;51.960;5.582;2024-01-25T11:13:33;7.80;96.10
71237;DHT22;58984;51.960;5.582;2024-01-25T11:15:59;7.80;96.20
71237;DHT22;58984;51.960;5.582;2024-01-25T11:18:25;7.80;96.20
71237;DHT22;58984;51.960;5.582;2024-01-25T11:20:51;7.80;96.20
71237;DHT22;58984;51.960;5.582;2024-01-25T11:23:17;7.80;96.20
71237;DHT22;58984;51.960;5.582;2024-01-25T11:25:54;7.80;96.20
71237;DHT22;58984;51.960;5.582;2024-01-25T11:28:20;7.80;96.20
71237;DHT22;58984;51.960;5.582;2024-01-25T11:30:46;7.80;96.30
71237;DHT22;58984;51.960;5.582;2024-01-25T11:33:13;7.80;96.30
71237;DHT22;58984;51.960;5.582;2024-01-25T11:35:39;7.80;96.70
71237;DHT22;58984;51.960;5.582;2024-01-25T11:38:07;7.90;96.50
71237;DHT22;58984;51.960;5.582;2024-01-25T11:40:33;7.90;96.50
71237;DHT22;58984;51.960;5.582;2024-01-25T11:43:00;7.90;96.80
71237;DHT22;58984;51.960;5.582;2024-01-25T11:45:26;7.90;96.50
71237;DHT22;58984;51.960;5.582;2024-01-25T11:47:52;7.90;96.70
71237;DHT22;58984;51.960;5.582;2024-01-25T11:50:25;7.90;96.50
71237;DHT22;58984;51.960;5.582;2024-01-25T11:52:51;7.90;96.50
71237;DHT22;58984;51.960;5.582;2024-01-25T11:55:16;7.90;96.50
71237;DHT22;58984;51.960;5.582;2024-01-25T11:57:42;7.90;96.50
71237;DHT22;58984;51.960;5.582;2024-01-25T12:00:10;7.90;96.50
71237;DHT22;58984;51.960;5.582;2024-01-25T12:02:38;7.90;96.50
71237;DHT22;58984;51.960;5.582;2024-01-25T12:05:05;7.90;96.50
71237;DHT22;58984;51.960;5.582;2024-01-25T12:07:31;7.90;96.50
71237;DHT22;58984;51.960;5.582;2024-01-25T12:10:02;7.90;96.50
71237;DHT22;58984;51.960;5.582;2024-01-25T12:12:28;7.90;96.60
71237;DHT22;58984;51.960;5.582;2024-01-25T12:15:07;7.90;96.60
71237;DHT22;58984;51.960;5.582;2024-01-25T12:17:34;7.90;96.70
71237;DHT22;58984;51.960;5.582;2024-01-25T12:20:02;7.90;96.80
71237;DHT22;58984;51.960;5.582;2024-01-25T12:22:28;7.90;96.70
71237;DHT22;58984;51.960;5.582;2024-01-25T12:24:55;7.90;96.80
71237;DHT22;58984;51.960;5.582;2024-01-25T12:27:21;7.90;96.80
71237;DHT22;58984;51.960;5.582;2024-01-25T12:29:50;7.90;96.80
71237;DHT22;58984;51.960;5.582;2024-01-25T12:32:16;7.90;96.90
71237;DHT22;58984;51.960;5.582;2024-01-25T12:34:52;7.90;97.20
71237;DHT22;58984;51.960;5.582;2024-01-25T12:37:17;8.00;96.90
71237;DHT22;58984;51.960;5.582;2024-01-25T12:39:43;8.00;96.90
71237;DHT22;58984;51.960;5.582;2024-01-25T12:42:08;8.00;96.80
71237;DHT22;58984;51.960;5.582;2024-01-25T12:44:34;8.00;96.80
71237;DHT22;58984;51.960;5.582;2024-01-25T12:47:00;8.10;96.80
71237;DHT22;58984;51.960;5.582;2024-01-25T12:49:28;8.10;96.80
71237;DHT22;58984;51.960;5.582;2024-01-25T12:51:54;8.10;96.80
71237;DHT22;58984;51.960;5.582;2024-01-25T12:54:20;8.10;96.70
71237;DHT22;58984;51.960;5.582;2024-01-25T12:56:45;8.20;97.00
71237;DHT22;58984;51.960;5.582;2024-01-25T12:59:12;8.10;96.70
71237;DHT22;58984;51.960;5.582;2024-01-25T13:01:37;8.10;96.70
71237;DHT22;58984;51.960;5.582;2024-01-25T13:04:03;8.20;96.80
71237;DHT22;58984;51.960;5.582;2024-01-25T13:06:29;8.10;96.80
71237;DHT22;58984;51.960;5.582;2024-01-25T13:08:55;8.10;96.80
71237;DHT22;58984;51.960;5.582;2024-01-25T13:11:20;8.10;96.80
71237;DHT22;58984;51.960;5.582;2024-01-25T13:13:46;8.20;96.90
71237;DHT22;58984;51.960;5.582;2024-01-25T13:16:11;8.10;96.80
71237;DHT22;58984;51.960;5.582;2024-01-25T13:18:37;8.10;96.90
71237;DHT22;58984;51.960;5.582;2024-01-25T13:21:02;8.10;96.80
71237;DHT22;58984;51.960;5.582;2024-01-25T13:23:28;8.20;96.90
71237;DHT22;58984;51.960;5.582;2024-01-25T13:25:54;8.20;96.90
71237;DHT22;58984;51.960;5.582;2024-01-25T13:28:19;8.10;96.80
71237;DHT22;58984;51.960;5.582;2024-01-25T13:30:45;8.20;96.80
71237;DHT22;58984;51.960;5.582;2024-01-25T13:33:10;8.20;96.80
71237;DHT22;58984;51.960;5.582;2024-01-25T13:35:36;8.10;96.70
71237;DHT22;58984;51.960;5.582;2024-01-25T13:38:02;8.10;97.10
71237;DHT22;58984;51.960;5.582;2024-01-25T13:40:27;8.10;96.90
71237;DHT22;58984;51.960;5.582;2024-01-25T13:42:53;8.10;96.90
71237;DHT22;58984;51.960;5.582;2024-01-25T13:45:20;8.10;96.80
71237;DHT22;58984;51.960;5.582;2024-01-25T13:47:46;8.10;96.90
71237;DHT22;58984;51.960;5.582;2024-01-25T13:50:11;8.10;96.80
71237;DHT22;58984;51.960;5.582;2024-01-25T13:52:37;8.10;96.90
71237;DHT22;58984;51.960;5.582;2024-01-25T13:55:03;8.10;96.90
71237;DHT22;58984;51.960;5.582;2024-01-25T13:57:29;8.10;96.80
71237;DHT22;58984;51.960;5.582;2024-01-25T13:59:54;8.10;97.00
71237;DHT22;58984;51.960;5.582;2024-01-25T14:02:20;8.20;97.00
71237;DHT22;58984;51.960;5.582;2024-01-25T14:04:45;8.10;96.90
71237;DHT22;58984;51.960;5.582;2024-01-25T14:07:13;8.10;97.00
71237;DHT22;58984;51.960;5.582;2024-01-25T14:09:38;8.10;97.00
71237;DHT22;58984;51.960;5.582;2024-01-25T14:12:06;8.20;97.10
71237;DHT22;58984;51.960;5.582;2024-01-25T14:14:32;8.10;97.10
71237;DHT22;58984;51.960;5.582;2024-01-25T14:17:00;8.10;97.10
71237;DHT22;58984;51.960;5.582;2024-01-25T14:19:26;8.20;97.20
71237;DHT22;58984;51.960;5.582;2024-01-25T14:21:51;8.20;97.20
71237;DHT22;58984;51.960;5.582;2024-01-25T14:24:17;8.20;97.20
71237;DHT22;58984;51.960;5.582;2024-01-25T14:26:44;8.20;97.20
71237;DHT22;58984;51.960;5.582;2024-01-25T14:29:12;8.20;97.20
71237;DHT22;58984;51.960;5.582;2024-01-25T14:31:38;8.20;97.20
71237;DHT22;58984;51.960;5.582;2024-01-25T14:34:04;8.20;97.30
71237;DHT22;58984;51.960;5.582;2024-01-25T14:36:29;8.10;97.20
71237;DHT22;58984;51.960;5.582;2024-01-25T14:38:55;8.20;97.70
71237;DHT22;58984;51.960;5.582;2024-01-25T14:41:20;8.20;97.40
71237;DHT22;58984;51.960;5.582;2024-01-25T14:43:46;8.20;97.50
71237;DHT22;58984;51.960;5.582;2024-01-25T14:46:12;8.10;97.70
71237;DHT22;58984;51.960;5.582;2024-01-25T14:48:38;8.20;97.50
71237;DHT22;58984;51.960;5.582;2024-01-25T14:51:04;8.10;97.70
71237;DHT22;58984;51.960;5.582;2024-01-25T14:53:29;8.10;97.60
71237;DHT22;58984;51.960;5.582;2024-01-25T14:55:55;8.20;97.70
71237;DHT22;58984;51.960;5.582;2024-01-25T14:58:20;8.10;97.60
71237;DHT22;58984;51.960;5.582;2024-01-25T15:00:50;8.10;97.70
71237;DHT22;58984;51.960;5.582;2024-01-25T15:03:16;8.20;97.80
71237;DHT22;58984;51.960;5.582;2024-01-25T15:05:41;8.20;97.80
71237;DHT22;58984;51.960;5.582;2024-01-25T15:08:18;8.20;97.90
71237;DHT22;58984;51.960;5.582;2024-01-25T15:10:44;8.20;98.00
71237;DHT22;58984;51.960;5.582;2024-01-25T15:13:12;8.20;98.10
71237;DHT22;58984;51.960;5.582;2024-01-25T15:15:38;8.10;98.20
71237;DHT22;58984;51.960;5.582;2024-01-25T15:18:03;8.10;98.30
71237;DHT22;58984;51.960;5.582;2024-01-25T15:20:30;8.10;98.50
71237;DHT22;58984;51.960;5.582;2024-01-25T15:22:56;8.10;98.40
71237;DHT22;58984;51.960;5.582;2024-01-25T15:25:27;8.10;98.40
71237;DHT22;58984;51.960;5.582;2024-01-25T15:27:53;8.10;98.50
71237;DHT22;58984;51.960;5.582;2024-01-25T15:30:19;8.10;98.40
71237;DHT22;58984;51.960;5.582;2024-01-25T15:32:44;8.20;98.50
71237;DHT22;58984;51.960;5.582;2024-01-25T15:35:12;8.10;98.70
71237;DHT22;58984;51.960;5.582;2024-01-25T15:37:38;8.10;98.70
71237;DHT22;58984;51.960;5.582;2024-01-25T15:40:04;8.10;98.50
71237;DHT22;58984;51.960;5.582;2024-01-25T15:42:36;8.10;98.70